createdAt,value
2018-12-22T00:02:25.999Z,98855.95
2018-12-22T00:05:27.760Z,98855.07
2018-12-22T00:08:29.641Z,98853.59
2018-12-22T00:11:31.416Z,98855.97
2018-12-22T00:14:34.393Z,98851.16
2018-12-22T00:17:36.121Z,98856.56
2018-12-22T00:20:37.960Z,98846.12
2018-12-22T00:23:39.773Z,98844.75
2018-12-22T00:26:41.618Z,98856.72
2018-12-22T00:29:43.357Z,98849.38
2018-12-22T00:32:45.123Z,98846.59
2018-12-22T00:35:46.867Z,98838.49
2018-12-22T00:38:48.717Z,98853.38
2018-12-22T00:41:50.437Z,98844.63
2018-12-22T00:44:52.315Z,98853.05
2018-12-22T00:47:54.160Z,98852.48
2018-12-22T00:50:56.298Z,98852.36
2018-12-22T00:53:58.074Z,98855.63
2018-12-22T00:56:59.857Z,98852.83
2018-12-22T01:00:01.671Z,98854.72
2018-12-22T01:03:03.591Z,98861.73
2018-12-22T01:06:05.332Z,98868.23
2018-12-22T01:09:07.321Z,98871.20
2018-12-22T01:12:09.795Z,98882.98
2018-12-22T01:15:11.615Z,98877.78
2018-12-22T01:18:13.357Z,98880.08
2018-12-22T01:21:15.165Z,98877.91
2018-12-22T01:24:16.915Z,98876.20
2018-12-22T01:27:18.691Z,98892.52
2018-12-22T01:30:20.461Z,98889.77
2018-12-22T01:33:22.298Z,98882.63
2018-12-22T01:36:24.131Z,98881.45
2018-12-22T01:39:26.044Z,98866.80
2018-12-22T01:42:27.894Z,98882.09
2018-12-22T01:45:29.702Z,98884.03
2018-12-22T01:48:31.538Z,98876.52
2018-12-22T01:51:33.412Z,98878.92
2018-12-22T01:54:35.313Z,98886.27
2018-12-22T01:57:37.202Z,98882.16
2018-12-22T02:00:39.070Z,98892.31
2018-12-22T02:03:40.824Z,98895.06
2018-12-22T02:06:42.729Z,98895.82
2018-12-22T02:09:44.541Z,98900.97
2018-12-22T02:12:46.350Z,98897.42
2018-12-22T02:15:48.111Z,98897.91
2018-12-22T02:18:49.921Z,98893.70
2018-12-22T02:21:51.739Z,98901.32
2018-12-22T02:24:53.552Z,98892.98
2018-12-22T02:27:55.312Z,98892.89
2018-12-22T02:30:57.200Z,98897.39
2018-12-22T02:33:58.983Z,98894.06
2018-12-22T02:37:00.823Z,98896.20
2018-12-22T02:40:05.059Z,98896.71
2018-12-22T02:43:06.855Z,98889.75
2018-12-22T02:46:08.660Z,98897.13
2018-12-22T02:49:10.531Z,98894.25
2018-12-22T02:52:13.479Z,98880.46
2018-12-22T02:55:15.315Z,98878.09
2018-12-22T02:58:17.060Z,98869.16
2018-12-22T03:01:18.971Z,98872.09
2018-12-22T03:04:20.778Z,98869.39
2018-12-22T03:07:22.663Z,98863.91
2018-12-22T03:10:24.503Z,98860.81
2018-12-22T03:13:26.383Z,98849.47
2018-12-22T03:16:28.152Z,98858.48
2018-12-22T03:19:29.955Z,98854.61
2018-12-22T03:22:31.762Z,98851.63
2018-12-22T03:25:33.592Z,98855.01
2018-12-22T03:28:35.426Z,98853.99
2018-12-22T03:31:37.242Z,98864.75
2018-12-22T03:34:38.983Z,98875.92
2018-12-22T03:37:40.891Z,98877.74
2018-12-22T03:40:42.772Z,98875.23
2018-12-22T03:43:44.722Z,98882.86
2018-12-22T03:46:47.829Z,98882.86
2018-12-22T03:49:49.702Z,98883.06
2018-12-22T03:52:51.467Z,98890.23
2018-12-22T03:55:53.239Z,98883.98
2018-12-22T03:58:54.981Z,98896.23
2018-12-22T04:01:56.927Z,98894.28
2018-12-22T04:04:58.738Z,98893.98
2018-12-22T04:08:00.573Z,98889.48
2018-12-22T04:11:02.610Z,98895.61
2018-12-22T04:14:04.504Z,98889.31
2018-12-22T04:17:06.351Z,98886.44
2018-12-22T04:20:08.351Z,98878.49
2018-12-22T04:23:10.152Z,98902.25
2018-12-22T04:26:11.966Z,98888.68
2018-12-22T04:29:13.810Z,98895.55
2018-12-22T04:32:15.541Z,98891.61
2018-12-22T04:35:17.287Z,98896.25
2018-12-22T04:38:19.063Z,98907.86
2018-12-22T04:41:20.909Z,98910.91
2018-12-22T04:44:22.939Z,98911.72
2018-12-22T04:47:24.768Z,98912.40
2018-12-22T04:50:26.612Z,98920.58
2018-12-22T04:53:28.428Z,98925.19
2018-12-22T04:56:30.241Z,98935.81
2018-12-22T04:59:32.056Z,98939.98
2018-12-22T05:02:35.198Z,98941.78
2018-12-22T05:05:37.036Z,98938.75
2018-12-22T05:08:39.333Z,98931.12
2018-12-22T05:11:41.285Z,98946.28
2018-12-22T05:14:43.139Z,98947.90
2018-12-22T05:17:44.925Z,98939.98
2018-12-22T05:20:46.678Z,98944.97
2018-12-22T05:23:48.587Z,98943.78
2018-12-22T05:26:51.293Z,98942.73
2018-12-22T05:29:53.171Z,98940.84
2018-12-22T05:32:54.976Z,98943.03
2018-12-22T05:35:56.739Z,98961.91
2018-12-22T05:38:58.488Z,98948.80
2018-12-22T05:42:00.298Z,98955.66
2018-12-22T05:45:02.164Z,98951.05
2018-12-22T05:48:03.966Z,98945.94
2018-12-22T05:51:05.793Z,98951.45
2018-12-22T05:54:07.593Z,98942.91
2018-12-22T05:57:09.433Z,98937.59
2018-12-22T06:00:11.333Z,98940.47
2018-12-22T06:03:13.217Z,98931.80
2018-12-22T06:06:14.996Z,98924.36
2018-12-22T06:09:16.835Z,98920.36
2018-12-22T06:12:18.696Z,98910.61
2018-12-22T06:15:20.470Z,98909.30
2018-12-22T06:18:22.450Z,98929.11
2018-12-22T06:21:24.261Z,98938.22
2018-12-22T06:24:26.052Z,98926.29
2018-12-22T06:27:27.990Z,98935.75
2018-12-22T06:30:29.765Z,98953.29
2018-12-22T06:33:31.548Z,98956.55
2018-12-22T06:36:33.305Z,98955.55
2018-12-22T06:39:35.229Z,98952.34
2018-12-22T06:42:43.479Z,98948.34
2018-12-22T06:45:45.363Z,98959.07
2018-12-22T06:48:47.327Z,98970.13
2018-12-22T06:51:49.171Z,98973.44
2018-12-22T06:54:51.153Z,98973.01
2018-12-22T06:57:53.005Z,98971.80
2018-12-22T07:00:54.856Z,98980.20
2018-12-22T07:03:56.727Z,98982.86
2018-12-22T07:06:58.526Z,98975.09
2018-12-22T07:10:00.559Z,98977.95
2018-12-22T07:13:02.466Z,98977.09
2018-12-22T07:16:04.305Z,98989.20
2018-12-22T07:19:06.087Z,98992.44
2018-12-22T07:22:08.016Z,98996.22
2018-12-22T07:25:09.892Z,98999.34
2018-12-22T07:28:11.799Z,99004.98
2018-12-22T07:31:13.778Z,99004.64
2018-12-22T07:34:15.670Z,99001.78
2018-12-22T07:37:17.543Z,99007.52
2018-12-22T07:40:19.385Z,98996.02
2018-12-22T07:43:21.209Z,99004.02
2018-12-22T07:46:23.476Z,99009.52
2018-12-22T07:49:25.284Z,99019.84
2018-12-22T07:52:27.073Z,99019.41
2018-12-22T07:55:28.826Z,99029.44
2018-12-22T07:58:30.748Z,99037.58
2018-12-22T08:01:32.597Z,99038.71
2018-12-22T08:04:34.469Z,99039.24
2018-12-22T08:07:36.509Z,99046.01
2018-12-22T08:10:38.557Z,99048.14
2018-12-22T08:13:40.374Z,99045.73
2018-12-22T08:16:42.220Z,99044.36
2018-12-22T08:19:43.994Z,99048.55
2018-12-22T08:22:45.889Z,99043.99
2018-12-22T08:25:47.694Z,99050.22
2018-12-22T08:28:49.796Z,99057.82
2018-12-22T08:31:51.552Z,99057.02
2018-12-22T08:34:53.349Z,99058.06
2018-12-22T08:37:55.167Z,99058.52
2018-12-22T08:40:57.046Z,99064.48
2018-12-22T08:43:59.006Z,99055.20
2018-12-22T08:47:00.843Z,99061.75
2018-12-22T08:50:08.942Z,99055.17
2018-12-22T08:53:07.086Z,99055.55
2018-12-22T08:56:08.879Z,99057.63
2018-12-22T08:59:10.702Z,99057.98
2018-12-22T09:02:12.619Z,99060.38
2018-12-22T09:05:14.381Z,99054.08
2018-12-22T09:08:16.159Z,99058.11
2018-12-22T09:11:17.908Z,99048.44
2018-12-22T09:14:19.747Z,99044.09
2018-12-22T09:17:21.562Z,99041.22
2018-12-22T09:20:23.506Z,99033.53
2018-12-22T09:23:25.354Z,99033.21
2018-12-22T09:26:27.122Z,99034.98
2018-12-22T09:29:28.973Z,99037.36
2018-12-22T09:32:31.065Z,99036.31
2018-12-22T09:35:32.876Z,99033.85
2018-12-22T09:38:34.709Z,99034.55
2018-12-22T09:41:36.462Z,99027.62
2018-12-22T09:44:38.334Z,99027.34
2018-12-22T09:47:40.191Z,99018.52
2018-12-22T09:50:42.296Z,99016.99
2018-12-22T09:53:44.040Z,99017.89
2018-12-22T09:56:45.805Z,99015.62
2018-12-22T09:59:47.751Z,99015.55
2018-12-22T10:02:49.548Z,99008.86
2018-12-22T10:05:51.412Z,99008.73
2018-12-22T10:08:53.171Z,99007.88
2018-12-22T10:11:55.121Z,99005.00
2018-12-22T10:14:57.141Z,99015.73
2018-12-22T10:17:59.099Z,99008.11
2018-12-22T10:21:00.944Z,99001.92
2018-12-22T10:24:02.736Z,99010.80
2018-12-22T10:27:04.518Z,98994.50
2018-12-22T10:30:08.610Z,98994.23
2018-12-22T10:33:10.500Z,99003.62
2018-12-22T10:36:12.513Z,98997.88
2018-12-22T10:39:14.361Z,98997.37
2018-12-22T10:42:16.203Z,98995.61
2018-12-22T10:45:17.970Z,98983.56
2018-12-22T10:48:19.831Z,98993.13
2018-12-22T10:51:24.379Z,98991.60
2018-12-22T10:54:25.692Z,98995.67
2018-12-22T10:57:27.502Z,99001.50
2018-12-22T11:00:29.635Z,99005.18
2018-12-22T11:03:32.168Z,99007.24
2018-12-22T11:06:34.193Z,99004.05
2018-12-22T11:09:36.004Z,99001.38
2018-12-22T11:12:37.922Z,99000.00
2018-12-22T11:15:39.745Z,98995.63
2018-12-22T11:18:41.704Z,98987.18
2018-12-22T11:21:43.678Z,98998.88
2018-12-22T11:24:45.560Z,98991.98
2018-12-22T11:27:47.435Z,98988.33
2018-12-22T11:30:50.431Z,98992.73
2018-12-22T11:33:52.304Z,98997.67
2018-12-22T11:36:54.046Z,98999.61
2018-12-22T11:39:55.860Z,99012.51
2018-12-22T11:42:57.696Z,99014.12
2018-12-22T11:46:00.394Z,99010.73
2018-12-22T11:49:02.276Z,99012.86
2018-12-22T11:52:04.277Z,99016.17
2018-12-22T11:55:07.062Z,99018.06
2018-12-22T11:58:08.965Z,99014.91
2018-12-22T12:01:10.757Z,99018.11
2018-12-22T12:04:12.575Z,99015.08
2018-12-22T12:07:14.436Z,99013.09
2018-12-22T12:10:16.352Z,99021.12
2018-12-22T12:13:18.170Z,99017.51
2018-12-22T12:16:21.147Z,99019.02
2018-12-22T12:19:23.162Z,99030.66
2018-12-22T12:22:25.064Z,99035.72
2018-12-22T12:25:27.034Z,99032.13
2018-12-22T12:28:28.906Z,98995.25
2018-12-22T12:31:30.694Z,99025.90
2018-12-22T12:34:32.600Z,99029.58
2018-12-22T12:37:34.534Z,99035.66
2018-12-22T12:40:36.389Z,99034.25
2018-12-22T12:43:38.506Z,99032.97
2018-12-22T12:46:40.587Z,99037.81
2018-12-22T12:49:42.667Z,99042.64
2018-12-22T12:52:44.682Z,99045.85
2018-12-22T12:55:46.624Z,99054.55
2018-12-22T12:58:48.911Z,99061.51
2018-12-22T13:02:00.791Z,99053.64
2018-12-22T13:04:56.243Z,99054.73
2018-12-22T13:07:58.180Z,99066.84
2018-12-22T13:11:00.083Z,99063.86
2018-12-22T13:14:02.043Z,99080.41
2018-12-22T13:17:04.113Z,99082.89
2018-12-22T13:20:10.032Z,99095.84
2018-12-22T13:23:12.102Z,99105.45
2018-12-22T13:26:14.224Z,99114.55
2018-12-22T13:29:16.288Z,99125.25
2018-12-22T13:32:18.153Z,99143.81
2018-12-22T13:35:20.034Z,99139.27
2018-12-22T13:38:21.773Z,99151.17
2018-12-22T13:41:23.543Z,99159.86
2018-12-22T13:44:25.588Z,99158.98
2018-12-22T13:47:27.677Z,99163.69
2018-12-22T13:50:29.773Z,99176.63
2018-12-22T13:53:31.958Z,99185.78
2018-12-22T13:56:34.064Z,99184.48
2018-12-22T13:59:35.909Z,99193.05
2018-12-22T14:02:37.746Z,99201.11
2018-12-22T14:05:39.544Z,99215.34
2018-12-22T14:08:41.374Z,99215.59
2018-12-22T14:11:43.322Z,99206.92
2018-12-22T14:14:45.239Z,99225.34
2018-12-22T14:17:55.113Z,99228.47
2018-12-22T14:20:56.927Z,99240.48
2018-12-22T14:24:03.911Z,99251.23
2018-12-22T14:27:05.971Z,99261.75
2018-12-22T14:30:11.188Z,99248.05
2018-12-22T14:33:12.926Z,99267.58
2018-12-22T14:36:14.806Z,99271.69
2018-12-22T14:39:16.593Z,99287.27
2018-12-22T14:42:18.400Z,99299.28
2018-12-22T14:45:20.212Z,99306.25
2018-12-22T14:48:22.085Z,99302.97
2018-12-22T14:51:23.905Z,99322.19
2018-12-22T14:54:25.779Z,99321.35
2018-12-22T14:57:28.018Z,99330.63
2018-12-22T15:00:29.768Z,99344.87
2018-12-22T15:03:31.615Z,99347.31
2018-12-22T15:06:34.576Z,99351.92
2018-12-22T15:09:36.393Z,99364.58
2018-12-22T15:12:38.205Z,99381.31
2018-12-22T15:15:40.918Z,99396.73
2018-12-22T15:18:42.714Z,99386.89
2018-12-22T15:21:44.439Z,99395.99
2018-12-22T15:24:46.342Z,99412.73
2018-12-22T15:27:48.192Z,99418.80
2018-12-22T15:30:50.059Z,99428.94
2018-12-22T15:33:52.076Z,99430.31
2018-12-22T15:36:53.905Z,99441.04
2018-12-22T15:39:55.747Z,99451.20
2018-12-22T15:42:57.605Z,99467.08
2018-12-22T15:45:59.515Z,99471.99
2018-12-22T15:49:01.437Z,99482.11
2018-12-22T15:52:03.272Z,99504.81
2018-12-22T15:55:07.434Z,99512.25
2018-12-22T15:58:09.439Z,99518.87
2018-12-22T16:01:11.236Z,99526.53
2018-12-22T16:04:13.059Z,99538.61
2018-12-22T16:07:15.030Z,99558.58
2018-12-22T16:10:16.949Z,99565.13
2018-12-22T16:13:20.647Z,99570.89
2018-12-22T16:16:22.815Z,99576.37
2018-12-22T16:19:24.572Z,99591.97
2018-12-22T16:22:26.428Z,99607.28
2018-12-22T16:25:28.237Z,99604.55
2018-12-22T16:28:30.193Z,99614.42
2018-12-22T16:31:32.825Z,99607.28
2018-12-22T16:34:35.036Z,99619.07
2018-12-22T16:37:36.864Z,99623.72
2018-12-22T16:40:38.709Z,99625.90
2018-12-22T16:43:40.625Z,99647.25
2018-12-22T16:46:42.500Z,99646.70
2018-12-22T16:49:44.306Z,99654.36
2018-12-22T16:52:46.202Z,99659.81
2018-12-22T16:55:48.048Z,99668.27
2018-12-22T16:58:50.341Z,99682.48
2018-12-22T17:01:52.155Z,99701.33
2018-12-22T17:04:54.092Z,99718.02
2018-12-22T17:07:55.952Z,99704.59
2018-12-22T17:10:58.877Z,99737.07
2018-12-22T17:14:00.695Z,99745.89
2018-12-22T17:17:02.578Z,99754.95
2018-12-22T17:20:08.472Z,99756.58
2018-12-22T17:23:26.202Z,99767.52
2018-12-22T17:26:29.572Z,99775.18
2018-12-22T17:29:31.543Z,99788.61
2018-12-22T17:32:33.335Z,99789.73
2018-12-22T17:35:35.556Z,99789.73
2018-12-22T17:38:37.367Z,99797.11
2018-12-22T17:41:39.184Z,99804.77
2018-12-22T17:44:40.955Z,99800.97
2018-12-22T17:47:42.817Z,99813.52
2018-12-22T17:50:44.637Z,99815.71
2018-12-22T17:53:46.469Z,99817.91
2018-12-22T17:56:48.437Z,99816.52
2018-12-22T17:59:51.174Z,99827.73
2018-12-22T18:02:53.262Z,99841.37
2018-12-22T18:05:55.034Z,99839.73
2018-12-22T18:08:56.849Z,99847.97
2018-12-22T18:11:58.759Z,99853.38
2018-12-22T18:15:00.782Z,99859.69
2018-12-22T18:18:02.759Z,99864.38
2018-12-22T18:21:04.542Z,99879.69
2018-12-22T18:24:06.348Z,99875.60
2018-12-22T18:27:08.283Z,99887.92
2018-12-22T18:30:11.485Z,99881.64
2018-12-22T18:33:13.276Z,99887.36
2018-12-22T18:36:15.061Z,99891.45
2018-12-22T18:39:17.520Z,99891.18
2018-12-22T18:42:19.283Z,99899.95
2018-12-22T18:45:21.282Z,99909.24
2018-12-22T18:48:23.046Z,99915.47
2018-12-22T18:51:25.009Z,99914.39
2018-12-22T18:54:26.817Z,99930.78
2018-12-22T18:57:28.699Z,99928.39
2018-12-22T19:00:30.646Z,99942.91
2018-12-22T19:03:32.668Z,99944.00
2018-12-22T19:06:34.507Z,99942.88
2018-12-22T19:09:36.429Z,99952.47
2018-12-22T19:12:38.300Z,99955.44
2018-12-22T19:15:40.174Z,99958.44
2018-12-22T19:18:42.511Z,99963.33
2018-12-22T19:21:44.424Z,99960.87
2018-12-22T19:24:46.245Z,99962.80
2018-12-22T19:27:48.154Z,99958.70
2018-12-22T19:30:50.226Z,99963.37
2018-12-22T19:33:53.665Z,99957.60
2018-12-22T19:36:55.973Z,99976.19
2018-12-22T19:39:57.746Z,99976.19
2018-12-22T19:42:59.573Z,99976.73
2018-12-22T19:46:01.549Z,99975.02
2018-12-22T19:49:03.560Z,99987.06
2018-12-22T19:52:05.358Z,99986.52
2018-12-22T19:55:07.291Z,99983.58
2018-12-22T19:58:09.926Z,99987.36
2018-12-22T20:01:12.230Z,99989.00
2018-12-22T20:04:14.118Z,99989.77
2018-12-22T20:07:16.050Z,99992.48
2018-12-22T20:10:17.855Z,99992.84
2018-12-22T20:13:19.782Z,100000.78
2018-12-22T20:16:21.657Z,99997.77
2018-12-22T20:19:23.764Z,99998.84
2018-12-22T20:22:25.664Z,99998.88
2018-12-22T20:25:27.623Z,99995.59
2018-12-22T20:28:29.647Z,100000.52
2018-12-22T20:31:31.981Z,100006.27
2018-12-22T20:34:34.858Z,100006.52
2018-12-22T20:37:37.792Z,100004.33
2018-12-22T20:40:40.653Z,100000.80
2018-12-22T20:43:43.347Z,99997.25
2018-12-22T20:46:45.124Z,100003.47
2018-12-22T20:49:46.993Z,99997.11
2018-12-22T20:52:48.878Z,100001.19
2018-12-22T20:55:50.848Z,100018.09
2018-12-22T20:58:52.696Z,100017.03
2018-12-22T21:01:55.828Z,100018.69
2018-12-22T21:04:57.882Z,100026.89
2018-12-22T21:07:59.699Z,100030.44
2018-12-22T21:11:01.529Z,100033.17
2018-12-22T21:14:04.521Z,100045.78
2018-12-22T21:17:06.329Z,100045.80
2018-12-22T21:20:08.223Z,100054.03
2018-12-22T21:23:10.069Z,100045.85
2018-12-22T21:26:11.941Z,100039.81
2018-12-22T21:29:13.744Z,100042.55
2018-12-22T21:32:15.626Z,100050.48
2018-12-22T21:35:17.585Z,100048.53
2018-12-22T21:38:19.411Z,100044.41
2018-12-22T21:41:21.282Z,100049.31
2018-12-22T21:44:23.139Z,100047.37
2018-12-22T21:47:25.000Z,100052.27
2018-12-22T21:50:26.847Z,100046.77
2018-12-22T21:53:28.592Z,100059.59
2018-12-22T21:56:30.426Z,100057.08
2018-12-22T21:59:32.224Z,100054.29
2018-12-22T22:02:34.082Z,100062.48
2018-12-22T22:05:35.953Z,100058.96
2018-12-22T22:08:37.760Z,100059.81
2018-12-22T22:11:39.641Z,100065.33
2018-12-22T22:14:41.620Z,100059.08
2018-12-22T22:17:43.492Z,100063.17
2018-12-22T22:20:45.360Z,100063.70
2018-12-22T22:23:47.436Z,100063.17
2018-12-22T22:26:50.134Z,100059.10
2018-12-22T22:29:52.039Z,100069.46
2018-12-22T22:32:53.939Z,100071.16
2018-12-22T22:35:55.791Z,100077.49
2018-12-22T22:38:57.645Z,100077.52
2018-12-22T22:41:59.432Z,100070.69
2018-12-22T22:45:01.275Z,100085.17
2018-12-22T22:48:03.142Z,100085.42
2018-12-22T22:51:05.013Z,100077.77
2018-12-22T22:54:06.822Z,100079.66
2018-12-22T22:57:08.697Z,100076.08
2018-12-22T23:00:12.536Z,100078.48
2018-12-22T23:03:14.498Z,100074.95
2018-12-22T23:06:16.333Z,100062.90
2018-12-22T23:09:18.091Z,100064.23
2018-12-22T23:12:19.954Z,100067.58
2018-12-22T23:15:22.017Z,100070.52
2018-12-22T23:18:23.986Z,100072.16
2018-12-22T23:21:25.889Z,100075.97
2018-12-22T23:24:27.709Z,100064.70
2018-12-22T23:27:29.507Z,100065.22
2018-12-22T23:30:31.349Z,100062.80
2018-12-22T23:33:33.215Z,100060.58
2018-12-22T23:36:34.958Z,100064.92
2018-12-22T23:39:36.745Z,100067.35
2018-12-22T23:42:38.489Z,100072.81
2018-12-22T23:45:40.308Z,100071.45
2018-12-22T23:48:42.113Z,100081.28
2018-12-22T23:51:43.887Z,100082.13
2018-12-22T23:54:45.709Z,100078.58
2018-12-22T23:57:47.724Z,100081.08
